Time;durP1;ratioP1;P1;durP2;ratioP2;P2;SDS_P1;SDS_P2;PMS_P1;PMS_P2;Temp;Humidity;BMP_temperature;BMP_pressure;BME280_temperature;BME280_humidity;BME280_pressure;Samples;Min_cycle;Max_cycle;Signal;HPM_P1;HPM_P2
2022/08/03 00:01:23;;;;;;;;;3.50;3.00;;;;;25.01;54.50;100943.91;5079599;27;45339;-67
2022/08/03 00:03:48;;;;;;;;;3.00;3.00;;;;;24.99;54.78;100942.13;5098080;27;45550;-66
2022/08/03 00:06:14;;;;;;;;;3.00;3.00;;;;;24.92;54.65;100934.84;5098157;27;45497;-67
2022/08/03 00:08:39;;;;;;;;;2.00;2.00;;;;;24.87;55.00;100953.53;5095146;27;45792;-66
2022/08/03 00:11:05;;;;;;;;;6.25;2.00;;;;;24.81;54.63;100962.38;5097898;27;45419;-67
2022/08/03 00:13:32;;;;;;;;;2.75;2.75;;;;;24.74;54.47;100953.19;5090201;27;45297;-67
2022/08/03 00:15:57;;;;;;;;;3.50;3.50;;;;;24.75;54.51;100957.66;5077491;28;45635;-67
2022/08/03 00:18:23;;;;;;;;;3.25;3.25;;;;;24.66;54.36;100965.78;5077163;28;45304;-66
2022/08/03 00:20:48;;;;;;;;;3.25;3.25;;;;;24.61;54.16;100954.56;5077014;28;45460;-66
2022/08/03 00:23:13;;;;;;;;;3.00;1.00;;;;;24.60;54.02;100961.00;5087175;27;45331;-66
2022/08/03 00:25:39;;;;;;;;;1.50;1.50;;;;;24.64;53.96;100965.09;5095089;27;45516;-68
2022/08/03 00:28:05;;;;;;;;;2.75;2.75;;;;;24.64;54.00;100954.22;5097069;27;45620;-66
2022/08/03 00:30:31;;;;;;;;;2.50;2.50;;;;;24.67;54.10;100962.03;5097020;27;45289;-67
2022/08/03 00:33:00;;;;;;;;;2.00;2.00;;;;;24.64;54.36;100956.94;5095373;27;45514;-67
2022/08/03 00:35:27;;;;;;;;;2.50;2.50;;;;;24.63;53.66;100960.69;5079493;27;45657;-66
2022/08/03 00:37:52;;;;;;;;;2.00;2.00;;;;;24.56;53.37;100961.50;5079054;27;46308;-67
2022/08/03 00:40:19;;;;;;;;;1.75;1.75;;;;;24.49;53.72;100950.47;5097097;27;45314;-66
2022/08/03 00:42:54;;;;;;;;;2.25;2.00;;;;;24.50;53.17;100952.16;5094704;27;45423;-66
2022/08/03 00:45:25;;;;;;;;;2.00;1.00;;;;;24.52;53.32;100949.28;5097282;27;45333;-65
2022/08/03 00:47:51;;;;;;;;;1.50;1.50;;;;;24.51;53.19;100945.72;5096048;27;46195;-67
2022/08/03 00:50:18;;;;;;;;;1.00;1.00;;;;;24.50;53.55;100949.44;5096887;27;45288;-68
2022/08/03 00:52:44;;;;;;;;;2.00;2.00;;;;;24.51;53.21;100950.31;5096307;27;45590;-68
2022/08/03 00:55:10;;;;;;;;;2.50;2.50;;;;;24.50;53.55;100946.72;5097623;27;45487;-67
2022/08/03 00:57:36;;;;;;;;;3.00;1.25;;;;;24.47;53.76;100941.59;5083627;27;46721;-67
2022/08/03 01:00:04;;;;;;;;;2.00;2.00;;;;;24.43;53.84;100932.09;5115378;27;45489;-66
2022/08/03 01:02:30;;;;;;;;;7.25;5.00;;;;;24.47;53.94;100936.16;5124026;27;45411;-66
2022/08/03 01:04:55;;;;;;;;;2.00;2.00;;;;;24.48;53.85;100931.59;5085392;27;45408;-66
2022/08/03 01:08:00;;;;;;;;;4.75;4.00;;;;;24.50;53.90;100941.31;5103712;27;45332;-66
2022/08/03 01:10:31;;;;;;;;;9.75;8.50;;;;;24.50;54.41;100932.28;5085961;27;45630;-65
2022/08/03 01:13:15;;;;;;;;;3.40;1.40;;;;;24.51;53.83;100945.72;5099945;27;45342;-67
2022/08/03 01:16:05;;;;;;;;;3.00;3.00;;;;;24.49;54.15;100934.16;5083222;28;45588;-66
2022/08/03 01:19:15;;;;;;;;;1.75;1.75;;;;;24.47;53.64;100928.00;5082734;28;45365;-65
2022/08/03 01:22:17;;;;;;;;;3.00;3.00;;;;;24.46;53.52;100928.19;5083224;28;45395;-66
2022/08/03 01:25:16;;;;;;;;;1.00;1.00;;;;;24.39;53.74;100922.59;5083132;28;45185;-67
2022/08/03 01:27:50;;;;;;;;;4.00;2.00;;;;;24.38;54.01;100920.88;5064578;28;45494;-66
2022/08/03 01:30:16;;;;;;;;;2.25;2.25;;;;;24.37;53.58;100919.19;5098177;27;45497;-67
2022/08/03 01:32:48;;;;;;;;;0.00;0.00;;;;;24.34;53.59;100914.91;5103433;27;45429;-67
2022/08/03 01:35:30;;;;;;;;;1.00;1.00;;;;;24.33;53.75;100917.81;5084759;27;45499;-66
2022/08/03 01:38:02;;;;;;;;;2.00;2.00;;;;;24.30;53.72;100907.28;5103444;27;45318;-65
2022/08/03 01:40:30;;;;;;;;;2.00;2.00;;;;;24.31;53.76;100908.97;5102702;27;45493;-66
2022/08/03 01:42:59;;;;;;;;;1.00;1.00;;;;;24.29;53.68;100917.25;5103684;27;45175;-66
2022/08/03 01:45:26;;;;;;;;;1.00;1.00;;;;;24.17;53.86;100902.28;5103119;27;45385;-68
2022/08/03 01:47:53;;;;;;;;;2.00;2.00;;;;;24.17;54.05;100901.44;5103175;27;45515;-66
2022/08/03 01:50:22;;;;;;;;;2.75;2.75;;;;;24.10;54.03;100891.25;5102187;27;46389;-66
2022/08/03 01:52:49;;;;;;;;;4.60;3.40;;;;;24.08;54.07;100893.25;5086131;27;45287;-66
2022/08/03 01:55:17;;;;;;;;;4.25;4.25;;;;;24.09;53.80;100902.28;5103801;27;45477;-66
2022/08/03 01:57:45;;;;;;;;;5.00;4.00;;;;;23.96;54.17;100888.28;5103198;27;45425;-65
2022/08/03 02:00:13;;;;;;;;;5.50;4.00;;;;;24.01;54.15;100900.38;5101878;27;45243;-67
2022/08/03 02:02:41;;;;;;;;;4.60;4.00;;;;;24.02;54.21;100910.22;5082101;27;46005;-67
2022/08/03 02:05:09;;;;;;;;;4.25;4.00;;;;;24.01;54.55;100903.09;5102479;27;45325;-67
2022/08/03 02:07:36;;;;;;;;;7.25;4.50;;;;;23.92;54.15;100898.66;5100388;27;45215;-66
2022/08/03 02:10:05;;;;;;;;;7.25;6.00;;;;;23.92;54.47;100895.09;5097792;27;46158;-67
2022/08/03 02:12:33;;;;;;;;;7.75;5.00;;;;;23.86;54.27;100893.88;5083383;27;45317;-68
2022/08/03 02:15:00;;;;;;;;;3.00;3.00;;;;;23.82;54.84;100893.34;5079373;27;45426;-65
2022/08/03 02:17:27;;;;;;;;;2.75;2.75;;;;;23.74;54.88;100878.91;5061987;28;45638;-65
2022/08/03 02:19:55;;;;;;;;;3.25;3.25;;;;;23.73;54.76;100879.94;5085887;27;45426;-66
2022/08/03 02:22:23;;;;;;;;;4.75;4.75;;;;;23.79;54.80;100893.69;5097781;27;45454;-66
2022/08/03 02:24:48;;;;;;;;;9.00;9.00;;;;;23.77;54.76;100884.00;5097685;27;45405;-66
2022/08/03 02:27:20;;;;;;;;;4.75;4.75;;;;;23.80;54.27;100884.53;5099025;27;45247;-66
2022/08/03 02:29:50;;;;;;;;;8.50;6.00;;;;;23.78;54.54;100880.28;5076438;28;45708;-67
2022/08/03 02:32:20;;;;;;;;;8.00;6.00;;;;;23.74;55.19;100876.19;5078369;28;45446;-67
2022/08/03 02:34:50;;;;;;;;;6.50;5.25;;;;;23.74;54.59;100873.47;5078417;28;45429;-66
2022/08/03 02:37:18;;;;;;;;;4.50;4.25;;;;;23.72;54.77;100875.50;5079226;28;45480;-66
2022/08/03 02:39:46;;;;;;;;;7.75;6.00;;;;;23.77;55.07;100889.44;5083786;27;46207;-66
2022/08/03 02:42:14;;;;;;;;;6.50;5.25;;;;;23.67;55.45;100872.41;5096843;27;45358;-65
2022/08/03 02:44:46;;;;;;;;;8.00;8.00;;;;;23.64;55.03;100883.63;5098915;27;45315;-67
2022/08/03 02:47:13;;;;;;;;;9.00;7.00;;;;;23.61;55.43;100889.38;5098751;27;45375;-66
2022/08/03 02:49:40;;;;;;;;;8.50;7.00;;;;;23.54;56.03;100887.28;5079145;27;45546;-66
2022/08/03 02:52:10;;;;;;;;;5.50;5.50;;;;;23.52;55.82;100886.59;5098697;27;45211;-65
2022/08/03 02:54:37;;;;;;;;;7.00;5.50;;;;;23.52;56.07;100881.16;5098790;27;45395;-66
2022/08/03 02:57:06;;;;;;;;;9.00;5.50;;;;;23.56;55.40;100881.66;5098399;27;45474;-65
2022/08/03 02:59:34;;;;;;;;;3.00;2.75;;;;;23.55;55.52;100880.81;5096671;27;45336;-66
2022/08/03 03:02:01;;;;;;;;;7.00;5.50;;;;;23.48;55.89;100868.94;5098779;27;45321;-66
2022/08/03 03:04:29;;;;;;;;;7.25;5.75;;;;;23.54;55.73;100875.56;5098907;27;45379;-66
2022/08/03 03:06:55;;;;;;;;;6.00;6.00;;;;;23.52;55.87;100877.59;5099017;27;45541;-65
2022/08/03 03:09:21;;;;;;;;;5.00;4.00;;;;;23.53;55.60;100872.00;5097678;27;45443;-62
2022/08/03 03:11:48;;;;;;;;;5.75;5.75;;;;;23.53;55.55;100871.16;5098158;27;45322;-63
2022/08/03 03:14:14;;;;;;;;;5.00;5.00;;;;;23.57;55.49;100866.22;5096524;27;45237;-64
2022/08/03 03:16:42;;;;;;;;;5.00;5.00;;;;;23.60;55.63;100863.25;5098782;27;45473;-65
2022/08/03 03:19:10;;;;;;;;;4.75;3.00;;;;;23.52;55.33;100854.00;5097324;27;45343;-63
2022/08/03 03:21:36;;;;;;;;;3.25;3.00;;;;;23.55;55.52;100864.53;5098727;27;45378;-61
2022/08/03 03:24:04;;;;;;;;;2.50;0.25;;;;;23.53;55.51;100853.00;5099392;27;45319;-64
2022/08/03 03:26:29;;;;;;;;;3.00;3.00;;;;;23.49;56.05;100862.50;5097746;27;45601;-62
2022/08/03 03:28:55;;;;;;;;;3.00;1.25;;;;;23.44;56.17;100856.72;5097763;27;46267;-64
2022/08/03 03:31:21;;;;;;;;;2.75;2.75;;;;;23.36;56.42;100856.66;5080341;27;45312;-62
2022/08/03 03:33:47;;;;;;;;;3.50;3.50;;;;;23.37;56.64;100866.50;5099204;27;45419;-63
2022/08/03 03:36:12;;;;;;;;;4.25;3.50;;;;;23.37;56.00;100861.06;5099309;27;45381;-63
2022/08/03 03:38:37;;;;;;;;;6.25;4.00;;;;;23.39;55.95;100869.91;5098273;27;45590;-64
2022/08/03 03:41:04;;;;;;;;;3.25;2.00;;;;;23.39;56.43;100869.91;5099022;27;45429;-64
2022/08/03 03:43:30;;;;;;;;;3.00;3.00;;;;;23.36;56.40;100859.38;5098220;27;45346;-64
2022/08/03 03:45:57;;;;;;;;;4.00;4.00;;;;;23.38;56.25;100854.63;5096236;27;45495;-63
2022/08/03 03:48:23;;;;;;;;;11.25;11.25;;;;;23.37;56.42;100861.06;5096385;27;45566;-64
2022/08/03 03:50:49;;;;;;;;;5.25;5.25;;;;;23.29;56.21;100852.03;5097282;27;45486;-60
2022/08/03 03:53:15;;;;;;;;;4.00;4.00;;;;;23.28;56.36;100851.19;5079071;27;45385;-65
2022/08/03 03:55:41;;;;;;;;;9.50;6.00;;;;;23.33;56.39;100848.84;5097716;27;45432;-64
2022/08/03 03:58:06;;;;;;;;;6.25;6.25;;;;;23.27;56.05;100844.06;5090936;27;45502;-66
2022/08/03 04:00:33;;;;;;;;;6.25;5.00;;;;;23.33;56.38;100862.41;5097743;27;45398;-65
2022/08/03 04:02:59;;;;;;;;;7.25;6.00;;;;;23.32;56.12;100858.00;5097986;27;45808;-65
2022/08/03 04:11:19;;;;;;;;;6.00;5.00;;;;;23.31;56.36;100867.16;5096918;27;45338;-67
2022/08/03 04:13:44;;;;;;;;;5.75;5.75;;;;;23.27;56.28;100854.91;5087141;27;45449;-65
2022/08/03 04:16:13;;;;;;;;;6.00;5.25;;;;;23.28;56.28;100861.19;5089174;27;45361;-67
2022/08/03 04:18:40;;;;;;;;;5.50;4.00;;;;;23.26;56.09;100847.78;5090157;27;46275;-65
2022/08/03 04:21:10;;;;;;;;;3.25;3.25;;;;;23.32;56.58;100863.44;5075336;27;45429;-66
2022/08/03 04:23:39;;;;;;;;;8.25;7.00;;;;;23.34;56.44;100863.25;5078532;27;45467;-64
2022/08/03 04:26:08;;;;;;;;;7.00;5.50;;;;;23.38;56.55;100867.34;5081734;27;45524;-65
2022/08/03 04:28:36;;;;;;;;;9.00;9.00;;;;;23.22;56.07;100835.56;5094247;27;46955;-67
2022/08/03 04:31:04;;;;;;;;;7.25;5.00;;;;;23.36;56.07;100858.53;5097033;27;45408;-66
2022/08/03 04:33:37;;;;;;;;;10.75;7.50;;;;;23.40;56.41;100865.31;5097295;27;45452;-65
2022/08/03 04:36:06;;;;;;;;;11.67;9.67;;;;;23.40;56.15;100868.88;5079040;27;45397;-65
2022/08/03 04:38:37;;;;;;;;;8.25;6.50;;;;;23.37;56.39;100861.06;5088608;27;45544;-66
2022/08/03 04:41:04;;;;;;;;;7.75;6.25;;;;;23.34;56.65;100861.41;5096975;27;45437;-63
2022/08/03 04:43:32;;;;;;;;;7.75;7.25;;;;;23.35;56.56;100854.97;5096815;27;45437;-64
2022/08/03 04:45:59;;;;;;;;;3.75;3.75;;;;;23.27;56.33;100849.47;5097466;27;45223;-65
2022/08/03 04:48:24;;;;;;;;;7.00;7.00;;;;;23.33;56.66;100867.84;5077215;27;46594;-65
2022/08/03 04:50:50;;;;;;;;;9.00;7.00;;;;;23.26;56.98;100853.22;5078073;27;46126;-66
2022/08/03 04:53:16;;;;;;;;;8.50;7.50;;;;;23.28;56.93;100866.59;5096471;27;45823;-66
2022/08/03 04:55:42;;;;;;;;;9.00;5.00;;;;;23.26;56.69;100858.63;5096661;27;45452;-65
2022/08/03 04:58:07;;;;;;;;;9.75;8.25;;;;;23.23;56.68;100856.25;5060304;27;46834;-66
2022/08/03 05:00:33;;;;;;;;;8.00;7.25;;;;;23.24;57.23;100860.66;5079361;27;45374;-64
2022/08/03 05:02:59;;;;;;;;;10.50;7.00;;;;;23.24;56.85;100860.66;5097842;27;45296;-66
2022/08/03 05:05:24;;;;;;;;;5.50;5.50;;;;;23.32;56.50;100868.00;5097546;27;45239;-65
2022/08/03 05:07:50;;;;;;;;;6.50;6.50;;;;;23.36;56.85;100867.50;5088983;27;45983;-66
2022/08/03 05:10:16;;;;;;;;;7.50;7.50;;;;;23.34;55.92;100861.41;5080293;27;45243;-64
2022/08/03 05:12:42;;;;;;;;;7.50;7.50;;;;;23.39;56.28;100869.91;5092870;27;45667;-64
2022/08/03 05:15:07;;;;;;;;;8.25;6.50;;;;;23.38;56.66;100862.78;5096786;27;45224;-64
2022/08/03 05:17:33;;;;;;;;;8.00;7.67;;;;;23.39;56.80;100859.03;5097680;27;46905;-64
2022/08/03 05:19:59;;;;;;;;;6.75;6.75;;;;;23.43;56.43;100863.13;5096266;27;45393;-65
2022/08/03 05:22:25;;;;;;;;;9.50;9.25;;;;;23.48;56.43;100866.22;5096807;27;45511;-64
2022/08/03 05:24:50;;;;;;;;;8.00;8.00;;;;;23.46;56.04;100859.25;5091371;27;45550;-64
2022/08/03 05:27:18;;;;;;;;;9.50;9.50;;;;;23.53;56.25;100877.41;5077930;27;46453;-65
2022/08/03 05:29:47;;;;;;;;;6.75;6.75;;;;;23.49;55.98;100867.06;5096321;27;45367;-65
2022/08/03 05:32:13;;;;;;;;;8.50;6.75;;;;;23.58;56.34;100873.44;5096157;27;45248;-64
2022/08/03 05:34:39;;;;;;;;;10.25;7.50;;;;;23.52;55.78;100862.16;5095478;27;45567;-64
2022/08/03 05:37:06;;;;;;;;;11.00;6.50;;;;;23.64;56.09;100870.88;5095448;27;46434;-65
2022/08/03 05:39:32;;;;;;;;;12.00;9.00;;;;;23.60;56.04;100868.69;5094676;27;45396;-63
2022/08/03 05:41:57;;;;;;;;;10.25;6.00;;;;;23.61;55.79;100873.94;5095951;27;45540;-65
2022/08/03 05:44:24;;;;;;;;;10.25;8.50;;;;;23.57;56.15;100871.66;5095055;27;45745;-66
2022/08/03 05:46:50;;;;;;;;;6.00;6.00;;;;;23.55;56.04;100864.53;5079669;27;45496;-64
2022/08/03 05:49:16;;;;;;;;;11.25;7.25;;;;;23.55;56.16;100853.69;5098054;27;45351;-64
2022/08/03 05:51:41;;;;;;;;;5.75;5.50;;;;;23.61;55.61;100860.38;5082847;27;45260;-66
2022/08/03 05:54:07;;;;;;;;;6.50;6.00;;;;;23.71;56.04;100873.81;5100144;27;45501;-65
2022/08/03 05:56:32;;;;;;;;;7.00;6.50;;;;;23.69;55.76;100860.38;5079862;27;46148;-68
2022/08/03 05:58:58;;;;;;;;;6.00;4.50;;;;;23.77;55.49;100884.00;5099739;27;45299;-65
2022/08/03 06:01:23;;;;;;;;;16.00;15.33;;;;;23.78;55.76;100872.13;5099281;27;45705;-65
2022/08/03 06:03:50;;;;;;;;;6.75;5.00;;;;;23.81;55.67;100875.34;5099442;27;45563;-65
2022/08/03 06:06:17;;;;;;;;;4.75;4.75;;;;;23.86;55.32;100877.59;5098293;27;46016;-65
2022/08/03 06:08:43;;;;;;;;;6.25;6.25;;;;;23.90;55.17;100883.53;5079184;27;45330;-65
2022/08/03 06:11:09;;;;;;;;;5.50;5.50;;;;;23.96;54.96;100889.19;5099736;27;45428;-67
2022/08/03 06:13:35;;;;;;;;;7.00;5.25;;;;;24.00;54.90;100886.97;5081203;27;45471;-63
2022/08/03 06:16:01;;;;;;;;;4.50;4.50;;;;;23.99;54.73;100882.56;5098917;27;46407;-65
2022/08/03 06:18:26;;;;;;;;;7.25;5.25;;;;;24.01;55.04;100875.94;5098155;27;45249;-66
2022/08/03 06:20:52;;;;;;;;;6.75;5.50;;;;;24.04;54.97;100881.03;5099176;27;45185;-65
2022/08/03 06:23:18;;;;;;;;;5.50;5.50;;;;;24.05;54.93;100876.44;5095135;27;45701;-65
2022/08/03 06:25:43;;;;;;;;;5.00;4.75;;;;;24.11;55.16;100882.06;5098423;27;46834;-66
2022/08/03 06:28:09;;;;;;;;;7.25;4.75;;;;;24.18;54.78;100887.69;5098833;27;45306;-64
2022/08/03 06:30:35;;;;;;;;;6.00;4.00;;;;;24.20;54.35;100882.06;5079672;27;45373;-65
2022/08/03 06:33:01;;;;;;;;;6.25;6.00;;;;;24.22;54.69;100882.75;5098921;27;45427;-66
2022/08/03 06:35:26;;;;;;;;;5.75;5.50;;;;;24.30;54.17;100889.09;5097145;27;47268;-65
2022/08/03 06:37:52;;;;;;;;;5.50;4.00;;;;;24.26;54.22;100879.56;5098561;27;45381;-65
2022/08/03 06:40:27;;;;;;;;;4.00;4.00;;;;;24.33;54.21;100886.03;5097977;27;45438;-66
2022/08/03 06:42:53;;;;;;;;;7.25;4.00;;;;;24.37;53.82;100892.00;5099443;27;45514;-66
2022/08/03 06:45:19;;;;;;;;;5.50;4.25;;;;;24.42;53.84;100889.63;5098749;27;45639;-64
2022/08/03 06:47:44;;;;;;;;;10.00;6.50;;;;;24.38;53.80;100880.97;5079224;27;45367;-65
2022/08/03 06:50:10;;;;;;;;;6.00;6.00;;;;;24.48;54.09;100877.22;5080722;27;45356;-63
2022/08/03 06:52:36;;;;;;;;;5.75;5.75;;;;;24.56;53.49;100880.78;5099661;27;45249;-63
2022/08/03 06:55:01;;;;;;;;;5.50;5.25;;;;;24.60;53.85;100881.28;5098458;27;45986;-64
2022/08/03 06:57:27;;;;;;;;;5.00;5.00;;;;;24.63;53.68;100881.81;5098647;27;45385;-63
2022/08/03 06:59:52;;;;;;;;;5.75;5.00;;;;;24.74;53.46;100893.34;5097396;27;45346;-64
2022/08/03 07:02:18;;;;;;;;;6.25;4.75;;;;;24.74;53.37;100877.91;5098109;27;45252;-65
2022/08/03 07:04:44;;;;;;;;;8.00;6.75;;;;;24.80;53.17;100887.25;5098612;27;46282;-65
2022/08/03 07:07:09;;;;;;;;;6.50;5.25;;;;;24.73;53.09;100872.63;5097423;27;45245;-64
2022/08/03 07:09:35;;;;;;;;;4.00;3.75;;;;;24.89;52.63;100894.38;5097931;27;45673;-63
2022/08/03 07:12:01;;;;;;;;;8.25;3.75;;;;;24.95;53.13;100890.97;5098655;27;45766;-65
2022/08/03 07:14:26;;;;;;;;;4.25;4.25;;;;;24.99;52.73;100897.75;5080938;27;46030;-65
2022/08/03 07:16:52;;;;;;;;;5.75;5.00;;;;;24.96;52.43;100879.06;5076328;28;45426;-65
2022/08/03 07:19:17;;;;;;;;;6.75;5.00;;;;;25.03;52.70;100874.69;5090178;27;45527;-67
2022/08/03 07:21:44;;;;;;;;;6.25;5.00;;;;;25.12;52.28;100889.94;5080126;27;45445;-66
2022/08/03 07:24:09;;;;;;;;;6.50;6.25;;;;;25.13;51.78;100878.06;5097353;27;45450;-65
2022/08/03 07:26:35;;;;;;;;;6.75;5.00;;;;;25.21;51.63;100886.19;5097836;27;45331;-64
2022/08/03 07:29:00;;;;;;;;;4.75;4.00;;;;;25.26;52.28;100889.25;5097157;27;45243;-64
2022/08/03 07:31:26;;;;;;;;;5.00;4.50;;;;;25.33;52.18;100888.53;5098090;27;45524;-65
2022/08/03 07:33:51;;;;;;;;;6.50;6.00;;;;;25.38;51.70;100892.44;5097723;27;45280;-65
2022/08/03 07:36:17;;;;;;;;;8.00;6.00;;;;;25.41;51.39;100880.38;5079444;27;45398;-66
2022/08/03 07:38:42;;;;;;;;;8.25;6.00;;;;;25.51;51.09;100883.72;5078509;27;45456;-66
2022/08/03 07:41:08;;;;;;;;;7.25;5.50;;;;;25.56;50.80;100889.50;5098572;27;45255;-64
2022/08/03 07:43:33;;;;;;;;;6.50;6.50;;;;;25.61;50.67;100880.78;5097721;27;46312;-65
2022/08/03 07:45:58;;;;;;;;;6.00;5.25;;;;;25.66;49.53;100879.25;5097602;27;45421;-64
2022/08/03 07:48:24;;;;;;;;;2.75;2.75;;;;;25.73;49.42;100896.59;5096672;27;45460;-64
2022/08/03 07:50:50;;;;;;;;;6.00;6.00;;;;;25.77;49.33;100887.03;5097813;27;45232;-65
2022/08/03 07:53:16;;;;;;;;;5.00;5.00;;;;;25.81;48.74;100891.13;5096939;27;45330;-64
2022/08/03 07:55:44;;;;;;;;;6.25;5.00;;;;;25.87;48.60;100893.13;5097635;27;45322;-65
2022/08/03 07:58:14;;;;;;;;;5.00;5.00;;;;;25.91;48.36;100887.31;5078750;27;45512;-65
2022/08/03 08:00:40;;;;;;;;;5.25;4.75;;;;;25.90;47.93;100878.28;5097847;27;45532;-65
2022/08/03 08:03:06;;;;;;;;;3.20;3.20;;;;;25.94;47.67;100882.38;5097238;27;46137;-64
2022/08/03 08:05:33;;;;;;;;;4.50;4.00;;;;;26.06;48.45;100891.84;5096162;27;45363;-65
2022/08/03 08:07:59;;;;;;;;;4.00;4.00;;;;;26.14;48.10;100882.75;5079219;27;45462;-64
2022/08/03 08:10:24;;;;;;;;;5.80;4.60;;;;;26.19;47.89;100888.53;5078196;27;45661;-64
2022/08/03 08:12:50;;;;;;;;;6.50;5.25;;;;;26.25;47.30;100879.59;5095555;27;46199;-65
2022/08/03 08:15:15;;;;;;;;;3.00;1.75;;;;;26.35;47.68;100890.28;5077215;28;45326;-66
2022/08/03 08:17:42;;;;;;;;;4.00;4.00;;;;;26.39;46.59;100878.84;5077021;28;45386;-65
2022/08/03 08:20:09;;;;;;;;;5.00;5.00;;;;;26.50;47.35;100882.19;5093126;27;45530;-65
2022/08/03 08:22:34;;;;;;;;;4.00;4.00;;;;;26.58;46.16;100873.97;5079199;27;45379;-67
2022/08/03 08:25:00;;;;;;;;;4.00;4.00;;;;;26.68;45.99;100875.38;5097872;27;45254;-66
2022/08/03 08:27:25;;;;;;;;;5.50;5.50;;;;;26.92;45.88;100877.03;5079772;27;45361;-67
2022/08/03 08:29:50;;;;;;;;;5.50;5.50;;;;;27.17;45.11;100879.56;5078739;27;45376;-65
2022/08/03 08:32:16;;;;;;;;;7.50;4.75;;;;;27.24;46.03;100869.59;5097339;27;45500;-66
2022/08/03 08:34:42;;;;;;;;;4.50;4.00;;;;;27.60;45.66;100873.22;5079772;27;45366;-66
2022/08/03 08:37:07;;;;;;;;;5.75;4.75;;;;;28.03;43.86;100865.19;5098282;27;45478;-65
2022/08/03 08:39:33;;;;;;;;;4.75;4.75;;;;;28.52;43.68;100869.94;5097276;27;45566;-65
2022/08/03 08:41:58;;;;;;;;;4.75;4.75;;;;;29.07;42.33;100868.28;5079325;27;45394;-65
2022/08/03 08:44:23;;;;;;;;;4.25;4.25;;;;;29.58;41.11;100870.75;5097333;27;45504;-66
2022/08/03 08:46:53;;;;;;;;;3.75;3.75;;;;;30.05;40.19;100855.28;5097200;27;45306;-66
2022/08/03 08:49:22;;;;;;;;;5.60;5.60;;;;;30.62;38.81;100867.66;5094796;27;45356;-66
2022/08/03 08:51:51;;;;;;;;;10.00;5.40;;;;;31.07;37.05;100863.22;5096674;27;46253;-64
2022/08/03 08:54:20;;;;;;;;;4.60;4.60;;;;;31.55;37.80;100872.03;5097026;27;45815;-66
2022/08/03 08:56:49;;;;;;;;;4.80;4.40;;;;;32.00;36.76;100861.06;5095845;27;45518;-66
2022/08/03 08:59:16;;;;;;;;;4.00;3.60;;;;;32.40;35.60;100860.84;5077904;27;45664;-65
2022/08/03 09:01:41;;;;;;;;;6.40;4.40;;;;;32.69;34.37;100854.69;5096634;27;46452;-67
2022/08/03 09:04:08;;;;;;;;;7.00;4.75;;;;;32.93;35.01;100852.16;5096905;27;45678;-66
2022/08/03 09:06:34;;;;;;;;;5.00;5.00;;;;;33.22;32.85;100854.22;5078684;27;45398;-66
2022/08/03 09:08:59;;;;;;;;;5.00;5.00;;;;;33.39;32.85;100858.06;5086498;27;45556;-66
2022/08/03 09:11:25;;;;;;;;;5.00;3.25;;;;;33.66;34.15;100855.00;5076007;28;45355;-66
2022/08/03 09:13:51;;;;;;;;;6.40;4.60;;;;;33.84;34.12;100852.19;5086539;27;45421;-66
2022/08/03 09:16:18;;;;;;;;;5.00;3.75;;;;;34.00;33.15;100850.75;5079065;27;45440;-66
2022/08/03 09:18:46;;;;;;;;;5.20;3.80;;;;;34.38;33.03;100847.69;5099699;27;45411;-67
2022/08/03 09:21:16;;;;;;;;;6.40;4.60;;;;;34.68;32.07;100847.59;5099969;27;46065;-65
2022/08/03 09:23:48;;;;;;;;;3.60;3.60;;;;;34.82;32.28;100842.69;5099789;27;45461;-66
2022/08/03 09:26:25;;;;;;;;;4.80;3.60;;;;;35.08;32.25;100842.22;5100306;27;45385;-66
2022/08/03 09:29:00;;;;;;;;;18.20;13.00;;;;;35.29;31.32;100826.94;5098104;27;45385;-66
2022/08/03 09:31:36;;;;;;;;;3.20;3.20;;;;;35.56;30.73;100841.09;5099963;27;46388;-65
2022/08/03 09:34:03;;;;;;;;;4.40;3.00;;;;;35.72;29.87;100850.56;5100150;27;45456;-66
2022/08/03 09:36:46;;;;;;;;;7.40;5.00;;;;;36.02;29.31;100848.41;5100156;27;45331;-64
2022/08/03 09:39:23;;;;;;;;;3.40;3.40;;;;;36.23;30.43;100833.03;5099284;27;45521;-66
2022/08/03 09:42:04;;;;;;;;;6.60;5.60;;;;;36.36;28.69;100834.66;5100157;27;45396;-66
2022/08/03 09:44:40;;;;;;;;;4.20;4.20;;;;;36.65;30.13;100840.97;5099825;27;45475;-66
2022/08/03 09:47:07;;;;;;;;;4.20;4.20;;;;;36.91;28.36;100845.00;5099694;27;45452;-66
2022/08/03 09:49:32;;;;;;;;;5.40;4.00;;;;;36.98;27.92;100844.81;5096230;27;45473;-66
2022/08/03 09:52:00;;;;;;;;;5.50;5.00;;;;;37.25;28.07;100837.47;5099467;27;46484;-67
2022/08/03 09:54:28;;;;;;;;;4.00;4.00;;;;;37.55;26.83;100837.06;5081384;27;45263;-67
2022/08/03 09:56:54;;;;;;;;;3.00;3.00;;;;;37.69;27.59;100826.41;5099550;27;45362;-66
2022/08/03 09:59:28;;;;;;;;;3.20;3.00;;;;;37.89;25.33;100820.25;5099085;27;45659;-67
2022/08/03 10:01:55;;;;;;;;;3.40;3.40;;;;;37.78;26.90;100822.09;5080760;27;47003;-66
2022/08/03 10:04:22;;;;;;;;;3.40;3.40;;;;;37.84;27.06;100814.66;5099356;27;45435;-67
2022/08/03 10:07:08;;;;;;;;;4.60;4.60;;;;;38.02;27.03;100823.44;5100208;27;45353;-67
2022/08/03 10:09:35;;;;;;;;;2.60;2.60;;;;;38.03;26.26;100816.81;5098925;27;45745;-67
2022/08/03 10:12:12;;;;;;;;;5.20;4.00;;;;;38.00;25.28;100810.94;5099275;27;46006;-67
2022/08/03 10:14:39;;;;;;;;;2.00;2.00;;;;;37.93;25.96;100818.66;5099036;27;45257;-67
2022/08/03 10:17:05;;;;;;;;;4.80;3.20;;;;;37.75;25.44;100811.50;5099378;27;45235;-66
2022/08/03 10:19:30;;;;;;;;;2.75;2.75;;;;;37.62;26.40;100811.88;5080875;27;45320;-66
2022/08/03 10:22:02;;;;;;;;;3.00;3.00;;;;;37.39;26.58;100816.63;5099937;27;45715;-67
2022/08/03 10:24:31;;;;;;;;;3.40;3.40;;;;;37.11;25.64;100800.09;5099291;27;45307;-66
2022/08/03 10:27:02;;;;;;;;;3.60;3.00;;;;;36.66;26.78;100798.31;5099233;27;45439;-68
2022/08/03 10:29:32;;;;;;;;;4.00;3.80;;;;;36.17;26.63;100800.78;5097958;27;45491;-67
2022/08/03 10:32:02;;;;;;;;;4.00;4.00;;;;;35.75;27.88;100786.41;5099016;27;45416;-68
2022/08/03 10:34:34;;;;;;;;;4.60;4.60;;;;;35.60;28.08;100800.78;5098747;27;45255;-67
2022/08/03 10:37:07;;;;;;;;;1.40;1.40;;;;;35.21;28.24;100779.47;5097942;27;45443;-68
2022/08/03 10:39:32;;;;;;;;;4.00;3.00;;;;;35.00;28.79;100786.47;5098853;27;46086;-68
2022/08/03 10:41:58;;;;;;;;;4.75;2.25;;;;;34.76;28.34;100783.69;5097659;27;45507;-67
2022/08/03 10:44:32;;;;;;;;;3.50;3.50;;;;;34.53;29.23;100776.25;5098509;27;45809;-67
2022/08/03 10:46:58;;;;;;;;;3.00;3.00;;;;;34.35;29.33;100781.84;5098725;27;46080;-66
2022/08/03 10:49:24;;;;;;;;;5.00;3.40;;;;;34.13;29.52;100783.50;5094780;27;45505;-67
2022/08/03 10:51:50;;;;;;;;;3.40;3.40;;;;;33.94;29.96;100774.41;5097445;27;45526;-67
2022/08/03 10:57:51;;;;;;;;;2.60;0.00;;;;;33.46;30.14;100788.22;5015792;28;45473;-67
2022/08/03 11:00:19;;;;;;;;;3.60;3.40;;;;;33.30;30.59;100773.13;5097529;27;45230;-65
2022/08/03 11:03:02;;;;;;;;;4.40;3.60;;;;;33.07;30.58;100774.66;5098334;27;45292;-66
2022/08/03 11:05:30;;;;;;;;;1.40;1.40;;;;;33.01;31.25;100769.22;5098397;27;45365;-67
2022/08/03 11:08:20;;;;;;;;;3.20;3.20;;;;;32.99;31.36;100761.19;5098471;27;45534;-66
2022/08/03 11:10:48;;;;;;;;;4.00;4.00;;;;;32.97;31.29;100773.50;5097664;27;45252;-68
2022/08/03 11:13:15;;;;;;;;;5.00;5.00;;;;;32.96;30.94;100766.31;5091402;27;46010;-68
2022/08/03 11:15:45;;;;;;;;;5.80;4.60;;;;;32.87;31.05;100752.00;5077959;28;45401;-68
2022/08/03 11:18:11;;;;;;;;;3.00;3.00;;;;;32.89;30.40;100766.38;5077575;28;45317;-67
2022/08/03 11:20:54;;;;;;;;;4.00;3.00;;;;;32.88;30.90;100770.22;5078220;28;45252;-67
2022/08/03 11:23:43;;;;;;;;;4.20;4.20;;;;;32.92;31.56;100762.31;5084841;27;45509;-68
2022/08/03 11:26:16;;;;;;;;;4.00;3.00;;;;;32.91;30.32;100755.13;5096698;27;45316;-67
2022/08/03 11:28:44;;;;;;;;;3.40;3.40;;;;;32.92;30.50;100762.31;5080007;27;45308;-67
2022/08/03 11:31:22;;;;;;;;;3.20;2.00;;;;;32.81;30.11;100750.09;5098470;27;45229;-67
2022/08/03 11:34:11;;;;;;;;;2.60;2.60;;;;;32.81;30.15;100739.09;5097514;27;46171;-67
2022/08/03 11:37:14;;;;;;;;;2.00;2.00;;;;;32.88;29.58;100742.66;5096781;27;45421;-68
2022/08/03 11:39:45;;;;;;;;;4.20;2.60;;;;;32.84;30.34;100736.78;5096994;27;45357;-68